Marty, South Dakota
Current Conditions -  °F | °C
As of 3:35 AM on Tuesday 21 Oct 2014 (Local Time) from KONL Reporting Station
Clear Clear  
Wind Chill: 45°   Ceiling: Unl
Heat Index: 48°   Visibility: 10mi
Dew Point: 41°   Wind: 7mph
Humidity: 77%   Direction: 160°SSE
Pressure: 30.03"   Gusts: NA
Location:  42.99°N, 98.43°W
Report Text: KONL 210835Z AUTO 16006KT 10SM CLR 09/05 A3003 RMK AO2 T00910052
Loading
Personal Weather Stations






























Interactive Weather Map
Tropical Storm Tracking
New forecast layout! Learn more

10-Day Weather Forecast

Advertisements
Track Severe Weather on mobile